Airfield :
LOGIN :

Register | Disclaimer

   EN    FR    IT 

 










Legend :    VFR   Marginal VFR   IFR   Intensive IFR   Very Intensive IFR
Visi :
Ceiling :
>= 8 km
>= 3000ft
5 to 8 km
1000 to 3000 ft
1500m to 5 km
500 to 1000 ft
800 to 1500m
200 to 500 ft
< 800m
< 200 ft
Symbols :   Thunderstorms  Fog  Heavy snow  Heavy precipitations  Wind > 20 kt
SIGMETs :     Misc.  Thunderstorms  Icing  Turbulence  Mountain Waves  Volcanic Ashes






- Airport Elevation : 138 ft
- IATA code : BIO


LEBB - Bilbao

CURRENT METAR :
  • 231730Z 26005KT 200V290 9000 SCT015 BKN025 15/12 Q1007 TEMPO SHRA SCT025TCU

EXPIRED METARs :
  • 231700Z 26007KT 190V300 9999 SCT022 BKN033 16/13 Q1006 TEMPO SHRA SCT025TCU
  • 231630Z 00000KT 9999 SCT022 BKN030 16/14 Q1006 TEMPO 30015G25KT SHRA SCT025TCU
  • 231600Z 28003KT 240V350 9999 -RA SCT018 BKN035 16/14 Q1006 TEMPO 30015G25KT SHRA SCT025TCU
  • 231530Z VRB02KT 9999 FEW012 SCT022 BKN038 17/14 Q1006 TEMPO 30015G25KT SHRA SCT025TCU
  • 231500Z 32003KT 260V360 9999 FEW012 SCT028 BKN038 17/14 Q1005 TEMPO 30015G25KT SHRA SCT025TCU

TAF TAF LEBB
Valid from the 23 at 18:00 until the 24 at 18:00 UTC


231700Z 2318/2418 25009KT 9999 SCT015 BKN025 TX19/2415Z TN10/2404Z
TEMPO 2318/2403 3000 RA BKN014
TEMPO 2318/2324 1500 +RA BKN005 BKN010
PROB40
TEMPO 2318/2321 3000 SHRA TS SCT025TCU SCT030CB
TEMPO 2318/2324 25015G25KT
PROB40
TEMPO 2318/2321 25025G35KT
BECMG 2400/2404 19010KT
PROB40
TEMPO 2406/2412 RA



MET'MAP, your aeronautical weather chart ! - Copyright ORBIFLY December 2007 - Disclaimer

ORBIFLY MET'MAP TEAM :

Programming & Development : Alexandra Zaïnal
Concept & Development : Baudouin d'Aumeries
Co-Development & Prog : Marc-Olivier Méhu
Technical & hardware support : Manuel Goepfert

Contact : metmap@orbifly.com




SOURCES & CREDITS :

   NOAA